Time;durP1;ratioP1;P1;durP2;ratioP2;P2;SDS_P1;SDS_P2;PMS_P1;PMS_P2;Temp;Humidity;BMP_temperature;BMP_pressure;BME280_temperature;BME280_humidity;BME280_pressure;Samples;Min_cycle;Max_cycle;Signal;HPM_P1;HPM_P2
2023/05/19 00:01:36;;;;;;;8.20;6.65;;;;;;;12.72;64.90;95191.84;5087521;28;20035;-83
2023/05/19 00:04:04;;;;;;;9.60;6.75;;;;;;;12.72;64.61;95189.84;5086060;28;20055;-83
2023/05/19 00:06:30;;;;;;;8.68;6.90;;;;;;;12.76;64.75;95196.03;5085821;28;20498;-83
2023/05/19 00:08:57;;;;;;;9.55;5.90;;;;;;;12.82;64.43;95192.72;5091959;28;20028;-84
2023/05/19 00:11:25;;;;;;;8.90;6.82;;;;;;;12.84;64.36;95193.78;5086225;28;20056;-83
2023/05/19 00:13:54;;;;;;;7.95;5.78;;;;;;;12.85;64.39;95198.13;5086742;28;20028;-83
2023/05/19 00:16:21;;;;;;;7.32;6.63;;;;;;;12.74;64.74;95186.66;5085228;28;20038;-83
2023/05/19 00:18:47;;;;;;;8.63;6.80;;;;;;;12.72;64.89;95181.56;5087515;28;20061;-82
2023/05/19 00:21:12;;;;;;;9.50;7.15;;;;;;;12.75;64.96;95191.72;5087011;28;20028;-83
2023/05/19 00:23:38;;;;;;;8.95;6.15;;;;;;;12.73;65.08;95180.38;5085498;28;20028;-82
2023/05/19 00:26:03;;;;;;;8.23;7.05;;;;;;;12.71;65.04;95177.28;5087096;28;20519;-83
2023/05/19 00:28:28;;;;;;;9.68;7.10;;;;;;;12.73;64.97;95176.81;5086371;28;20077;-82
2023/05/19 00:30:54;;;;;;;12.05;7.70;;;;;;;12.70;64.89;95177.72;5085907;28;20032;-83
2023/05/19 00:33:20;;;;;;;8.48;6.50;;;;;;;12.67;64.85;95176.63;5087245;28;20143;-84
2023/05/19 00:35:45;;;;;;;9.20;6.20;;;;;;;12.68;65.19;95178.19;5101281;28;20024;-85
2023/05/19 00:38:11;;;;;;;9.35;6.68;;;;;;;12.55;65.28;95179.41;5085556;28;20027;-83
2023/05/19 00:40:36;;;;;;;7.95;6.45;;;;;;;12.47;65.68;95185.16;5085603;28;20051;-82
2023/05/19 00:43:04;;;;;;;9.18;6.65;;;;;;;12.59;65.49;95169.03;5085291;28;20052;-84
2023/05/19 00:45:29;;;;;;;7.82;6.75;;;;;;;12.49;65.60;95166.16;5085062;28;20020;-84
2023/05/19 00:47:55;;;;;;;9.00;7.03;;;;;;;12.49;65.62;95168.16;5068586;28;20525;-84
2023/05/19 00:50:20;;;;;;;9.38;7.45;;;;;;;12.45;65.94;95168.28;5086153;28;20032;-83
2023/05/19 00:52:46;;;;;;;8.40;7.25;;;;;;;12.42;66.03;95166.41;5085477;28;20028;-83
2023/05/19 00:55:12;;;;;;;8.38;7.20;;;;;;;12.32;66.17;95164.75;5084294;28;20128;-84
2023/05/19 00:57:38;;;;;;;8.75;7.13;;;;;;;12.29;66.26;95164.88;5085960;28;20020;-84
2023/05/19 01:00:04;;;;;;;8.70;7.20;;;;;;;12.33;66.26;95176.56;5084759;28;20515;-82
2023/05/19 01:02:31;;;;;;;10.02;6.88;;;;;;;12.30;66.25;95167.19;5086223;28;20082;-82
2023/05/19 01:04:56;;;;;;;11.50;8.02;;;;;;;12.31;66.14;95168.72;5086087;28;20482;-82
2023/05/19 01:07:22;;;;;;;10.50;8.00;;;;;;;12.26;66.38;95163.00;5084141;28;20062;-83
2023/05/19 01:09:48;;;;;;;9.40;7.72;;;;;;;12.18;66.84;95171.50;5086319;28;20107;-84
2023/05/19 01:12:14;;;;;;;9.23;7.63;;;;;;;12.15;66.86;95163.34;5067452;28;20027;-84
2023/05/19 01:14:41;;;;;;;10.77;8.10;;;;;;;12.10;67.16;95161.13;5091018;28;20028;-83
2023/05/19 01:17:08;;;;;;;9.77;7.80;;;;;;;12.07;67.24;95171.06;5087353;28;20537;-83
2023/05/19 01:19:49;;;;;;;12.18;8.48;;;;;;;12.06;67.36;95171.50;5085376;28;20490;-83
2023/05/19 01:22:29;;;;;;;10.98;8.25;;;;;;;12.09;67.28;95171.38;5086266;28;20082;-83
2023/05/19 01:25:24;;;;;;;10.60;8.23;;;;;;;12.14;67.15;95170.06;5067233;28;20464;-83
2023/05/19 01:28:05;;;;;;;13.23;9.02;;;;;;;12.08;67.40;95160.81;5086696;28;20064;-82
2023/05/19 01:30:44;;;;;;;11.05;8.10;;;;;;;11.92;67.72;95164.44;5096810;28;20034;-84
2023/05/19 01:33:15;;;;;;;11.85;8.57;;;;;;;11.93;67.75;95168.75;5074121;28;20131;-83
2023/05/19 01:35:42;;;;;;;10.85;8.45;;;;;;;11.81;68.03;95173.00;5086688;28;20024;-84
2023/05/19 01:38:09;;;;;;;8.43;7.53;;;;;;;11.79;67.92;95171.91;5067566;28;20032;-83
2023/05/19 01:40:36;;;;;;;9.48;7.43;;;;;;;11.70;68.05;95173.31;5085729;28;20026;-83
2023/05/19 01:43:02;;;;;;;11.55;8.38;;;;;;;11.69;68.23;95180.03;5083764;28;20032;-82
2023/05/19 01:45:29;;;;;;;10.35;7.93;;;;;;;11.73;68.02;95185.44;5086845;28;20099;-84
2023/05/19 01:47:58;;;;;;;11.68;7.70;;;;;;;11.76;67.91;95179.06;5084921;28;20032;-84
2023/05/19 01:50:24;;;;;;;8.95;7.43;;;;;;;11.72;67.92;95172.88;5084242;28;20024;-83
2023/05/19 01:52:50;;;;;;;9.40;7.47;;;;;;;11.75;67.83;95176.72;5067588;28;20504;-83
2023/05/19 01:55:15;;;;;;;10.10;7.63;;;;;;;11.70;68.05;95178.06;5083939;28;20515;-82
2023/05/19 01:58:03;;;;;;;8.85;7.45;;;;;;;11.67;68.11;95179.69;5084961;28;20016;-83
2023/05/19 02:00:52;;;;;;;15.52;9.23;;;;;;;11.64;68.04;95183.34;5083719;28;20027;-83
2023/05/19 02:03:39;;;;;;;10.95;8.48;;;;;;;11.67;68.17;95176.94;5067475;28;20036;-83
2023/05/19 02:06:35;;;;;;;12.77;8.52;;;;;;;11.61;68.28;95178.69;5085766;28;20035;-83
2023/05/19 02:09:14;;;;;;;10.70;8.27;;;;;;;11.60;68.36;95174.41;5085146;28;20134;-83
2023/05/19 02:12:12;;;;;;;10.35;7.93;;;;;;;11.60;68.49;95177.16;5067959;28;20028;-83
2023/05/19 02:14:46;;;;;;;11.35;8.25;;;;;;;11.58;68.47;95190.56;5003491;28;20045;-83
2023/05/19 02:17:14;;;;;;;13.45;8.50;;;;;;;11.59;68.48;95192.13;4987445;28;20443;-84
2023/05/19 02:19:40;;;;;;;12.38;8.90;;;;;;;11.53;68.59;95180.13;4991663;28;20412;-82
2023/05/19 02:22:05;;;;;;;14.15;9.88;;;;;;;11.55;68.72;95183.19;4994089;28;20109;-83
2023/05/19 02:24:31;;;;;;;11.45;9.18;;;;;;;11.56;68.79;95184.75;4992416;28;20052;-83
2023/05/19 02:26:56;;;;;;;12.38;9.40;;;;;;;11.63;68.76;95189.25;5018014;28;20069;-82
2023/05/19 02:29:22;;;;;;;12.40;10.07;;;;;;;11.65;68.36;95195.13;4991010;28;20112;-82
2023/05/19 02:31:47;;;;;;;15.15;10.45;;;;;;;11.56;68.73;95190.25;4974418;28;20049;-82
2023/05/19 02:34:13;;;;;;;13.07;9.30;;;;;;;11.55;69.02;95183.19;4989866;28;20417;-83
2023/05/19 02:36:40;;;;;;;13.50;9.82;;;;;;;11.46;69.36;95182.28;5007255;28;20424;-81
2023/05/19 02:39:05;;;;;;;16.15;9.52;;;;;;;11.54;69.17;95191.91;5006039;28;20088;-82
2023/05/19 02:41:31;;;;;;;14.38;10.35;;;;;;;11.56;68.94;95189.47;4991002;28;20512;-82
2023/05/19 02:43:56;;;;;;;13.13;9.30;;;;;;;11.59;68.72;95186.63;5006016;28;20511;-82
2023/05/19 02:46:22;;;;;;;14.18;10.30;;;;;;;11.60;68.76;95184.66;5006586;28;20026;-82
2023/05/19 02:48:47;;;;;;;12.85;9.50;;;;;;;11.59;68.95;95178.38;4990553;28;20493;-83
2023/05/19 02:51:13;;;;;;;13.98;10.40;;;;;;;11.57;68.73;95197.28;5043063;28;20040;-84
2023/05/19 02:53:38;;;;;;;14.45;9.43;;;;;;;11.56;68.81;95189.47;5089297;28;20024;-85
2023/05/19 02:56:03;;;;;;;13.80;10.52;;;;;;;11.58;68.81;95190.56;5087918;28;20547;-84
2023/05/19 02:58:29;;;;;;;14.07;9.60;;;;;;;11.53;68.58;95199.41;5089586;28;20112;-83
2023/05/19 03:00:55;;;;;;;15.05;10.70;;;;;;;11.52;68.95;95191.56;5087961;28;20648;-84
2023/05/19 03:03:20;;;;;;;17.98;10.50;;;;;;;11.44;69.10;95191.75;5088792;28;20085;-84
2023/05/19 03:05:46;;;;;;;15.20;10.35;;;;;;;11.51;69.22;95198.28;5087311;28;20024;-83
2023/05/19 03:08:11;;;;;;;15.60;10.93;;;;;;;11.55;68.76;95205.22;5070230;28;20082;-83
2023/05/19 03:10:37;;;;;;;15.95;10.50;;;;;;;11.49;69.00;95211.72;5087454;28;20024;-84
2023/05/19 03:13:02;;;;;;;14.57;10.43;;;;;;;11.52;68.81;95221.84;5087465;28;20140;-83
2023/05/19 03:15:28;;;;;;;13.48;10.13;;;;;;;11.60;68.64;95209.44;5087621;28;20047;-84
2023/05/19 03:17:53;;;;;;;14.65;10.43;;;;;;;11.65;68.54;95209.66;5088172;28;20088;-84
2023/05/19 03:20:19;;;;;;;16.15;10.43;;;;;;;11.68;68.38;95210.75;5092230;28;20032;-84
2023/05/19 03:22:44;;;;;;;12.93;10.13;;;;;;;11.69;68.46;95206.78;5099577;28;20509;-83
2023/05/19 03:25:10;;;;;;;14.15;10.40;;;;;;;11.72;68.39;95199.66;5088931;28;20060;-82
2023/05/19 03:27:35;;;;;;;14.80;10.85;;;;;;;11.73;68.24;95201.19;5073306;28;20016;-81
2023/05/19 03:30:01;;;;;;;16.98;11.15;;;;;;;11.75;68.08;95209.78;5088089;28;20408;-82
2023/05/19 03:32:26;;;;;;;17.23;10.93;;;;;;;11.79;67.99;95205.72;5069764;28;20082;-83
2023/05/19 03:34:52;;;;;;;14.85;9.85;;;;;;;11.79;67.84;95211.22;5087576;28;20058;-83
2023/05/19 03:37:17;;;;;;;16.10;10.73;;;;;;;11.84;67.80;95207.19;5086954;28;20107;-83
2023/05/19 03:39:43;;;;;;;14.52;10.27;;;;;;;11.85;67.63;95200.47;5069546;28;20024;-83
2023/05/19 03:42:08;;;;;;;14.18;10.52;;;;;;;11.86;67.51;95205.53;5087972;28;20024;-83
2023/05/19 03:44:34;;;;;;;15.60;10.10;;;;;;;11.89;67.54;95207.41;5086357;28;20020;-82
2023/05/19 03:46:59;;;;;;;15.68;10.85;;;;;;;11.91;67.53;95213.25;5087677;28;20028;-82
2023/05/19 03:49:25;;;;;;;13.43;9.48;;;;;;;11.77;67.75;95208.16;5086329;28;20028;-82
2023/05/19 03:51:50;;;;;;;13.77;9.90;;;;;;;11.88;67.52;95211.38;5086004;28;20124;-83
2023/05/19 03:54:15;;;;;;;14.32;10.40;;;;;;;11.90;67.31;95211.72;5069649;28;20024;-83
2023/05/19 03:56:41;;;;;;;20.00;10.20;;;;;;;11.95;67.27;95215.91;5085430;28;20059;-83
2023/05/19 03:59:07;;;;;;;16.98;9.98;;;;;;;11.91;67.29;95212.47;5087686;28;20468;-83
2023/05/19 04:01:33;;;;;;;14.05;10.05;;;;;;;11.97;67.13;95216.25;5086735;28;20457;-82
2023/05/19 04:03:58;;;;;;;13.60;9.90;;;;;;;12.02;67.03;95217.69;5086855;28;20024;-83
2023/05/19 04:06:23;;;;;;;15.00;10.60;;;;;;;11.98;67.09;95222.50;5085788;28;20097;-84
2023/05/19 04:08:49;;;;;;;15.02;9.38;;;;;;;12.03;66.97;95224.72;5086110;28;20051;-83
2023/05/19 04:11:14;;;;;;;13.75;10.55;;;;;;;12.00;67.24;95225.63;5086547;28;20047;-84
2023/05/19 04:13:40;;;;;;;13.05;9.88;;;;;;;12.08;67.10;95227.72;5087317;28;20024;-82
2023/05/19 04:16:06;;;;;;;14.15;10.70;;;;;;;12.12;67.03;95227.63;5087558;28;20028;-83
2023/05/19 04:18:31;;;;;;;15.25;10.88;;;;;;;12.17;66.84;95229.81;5095578;28;20497;-83
2023/05/19 04:20:56;;;;;;;13.25;9.77;;;;;;;12.13;67.00;95215.38;5088509;28;20111;-82
2023/05/19 04:23:22;;;;;;;14.55;10.27;;;;;;;12.23;66.94;95217.03;5086950;28;20020;-83
2023/05/19 04:25:48;;;;;;;15.57;9.30;;;;;;;12.27;67.07;95233.44;5086074;28;20154;-83
2023/05/19 04:28:13;;;;;;;14.48;9.95;;;;;;;12.28;66.87;95227.53;5086410;28;20028;-84
2023/05/19 04:30:41;;;;;;;14.45;9.55;;;;;;;12.25;66.88;95227.63;5087181;28;20035;-83
2023/05/19 04:33:08;;;;;;;14.65;10.07;;;;;;;12.29;67.10;95229.06;5097023;28;20043;-83
2023/05/19 04:35:33;;;;;;;14.48;9.60;;;;;;;12.43;66.67;95236.88;5074969;28;20071;-83
2023/05/19 04:38:00;;;;;;;12.52;9.43;;;;;;;12.42;66.88;95229.81;5087952;28;20016;-82
2023/05/19 04:40:26;;;;;;;14.32;9.63;;;;;;;12.41;67.04;95236.56;5084516;28;20058;-84
2023/05/19 04:42:52;;;;;;;13.65;10.10;;;;;;;12.48;66.94;95228.06;5087481;28;20056;-83
2023/05/19 04:45:18;;;;;;;14.35;10.52;;;;;;;12.49;66.78;95239.84;5068497;28;20267;-84
2023/05/19 04:47:45;;;;;;;15.25;10.90;;;;;;;12.59;66.72;95229.72;5085337;28;20028;-82
2023/05/19 04:50:11;;;;;;;14.95;9.98;;;;;;;12.65;66.48;95233.44;5085923;28;20020;-82
2023/05/19 04:52:37;;;;;;;16.27;10.07;;;;;;;12.70;66.56;95232.88;5085055;28;20500;-83
2023/05/19 04:55:02;;;;;;;17.88;11.63;;;;;;;12.74;66.58;95234.31;5069165;28;20057;-83
2023/05/19 04:57:28;;;;;;;22.38;12.45;;;;;;;12.82;66.60;95243.13;5085747;28;20028;-83
2023/05/19 04:59:58;;;;;;;17.83;11.55;;;;;;;12.86;66.58;95243.03;5087659;28;20024;-82
2023/05/19 05:02:26;;;;;;;14.20;10.50;;;;;;;12.91;66.23;95242.47;5085105;28;20036;-82
2023/05/19 05:04:53;;;;;;;15.15;9.55;;;;;;;12.95;66.19;95237.59;5085516;28;20518;-82
2023/05/19 05:07:20;;;;;;;14.13;10.15;;;;;;;12.98;65.91;95239.47;5085843;28;20036;-83
2023/05/19 05:09:47;;;;;;;16.42;10.23;;;;;;;12.95;66.17;95245.88;5086068;28;20024;-82
2023/05/19 05:12:13;;;;;;;12.25;9.50;;;;;;;13.05;66.00;95241.22;5092669;28;20059;-83
2023/05/19 05:14:39;;;;;;;15.82;10.75;;;;;;;13.01;66.09;95249.59;5092910;28;20123;-82
2023/05/19 05:17:05;;;;;;;13.57;9.45;;;;;;;12.85;66.53;95247.00;5085733;28;20371;-83
2023/05/19 05:19:31;;;;;;;14.20;9.82;;;;;;;12.96;66.48;95247.41;5084101;28;20081;-83
2023/05/19 05:21:57;;;;;;;14.98;10.00;;;;;;;12.80;66.66;95244.81;5086625;28;20020;-83
2023/05/19 05:24:22;;;;;;;16.13;10.02;;;;;;;12.86;66.78;95241.03;5068018;28;20036;-83
2023/05/19 05:26:48;;;;;;;15.88;9.80;;;;;;;12.92;66.61;95239.25;5084795;28;20121;-82
2023/05/19 05:29:13;;;;;;;13.00;9.75;;;;;;;13.02;66.33;95227.09;5085225;28;20024;-83
2023/05/19 05:31:39;;;;;;;15.15;10.32;;;;;;;13.10;66.25;95235.13;5084243;28;20418;-82
2023/05/19 05:34:05;;;;;;;15.18;10.25;;;;;;;13.16;65.95;95238.88;5086786;28;20035;-83
2023/05/19 05:36:31;;;;;;;18.42;10.15;;;;;;;13.25;65.61;95239.75;5084189;28;20078;-83
2023/05/19 05:38:58;;;;;;;17.73;12.10;;;;;;;13.27;65.24;95244.81;5090683;28;20471;-83
2023/05/19 05:41:23;;;;;;;21.50;9.82;;;;;;;13.31;64.94;95247.47;5084507;28;20028;-83
2023/05/19 05:43:49;;;;;;;13.25;9.63;;;;;;;13.40;64.70;95242.78;5086119;28;20115;-83
2023/05/19 05:46:14;;;;;;;15.50;10.68;;;;;;;13.31;65.20;95242.72;5084845;28;20073;-85
2023/05/19 05:48:41;;;;;;;14.73;10.13;;;;;;;13.38;65.20;95245.22;5084327;28;20039;-84
2023/05/19 05:51:07;;;;;;;15.32;10.02;;;;;;;13.48;65.02;95251.59;5086279;28;20454;-82
2023/05/19 05:53:36;;;;;;;15.88;10.85;;;;;;;13.30;65.14;95241.16;5087994;28;20530;-83
2023/05/19 05:56:01;;;;;;;13.88;9.98;;;;;;;13.43;65.27;95261.22;5091011;28;20029;-84
2023/05/19 05:58:27;;;;;;;12.70;9.38;;;;;;;13.53;64.40;95260.09;5088720;28;20016;-81
2023/05/19 06:00:56;;;;;;;14.55;9.73;;;;;;;13.67;65.07;95260.81;5089994;28;20059;-85
2023/05/19 06:03:23;;;;;;;15.95;10.38;;;;;;;13.73;64.39;95259.00;5073407;28;20111;-85
2023/05/19 06:05:48;;;;;;;16.00;9.10;;;;;;;13.79;64.35;95260.72;5089957;28;20099;-85
2023/05/19 06:08:14;;;;;;;13.25;8.70;;;;;;;13.82;64.16;95272.91;5100803;28;20052;-86
2023/05/19 06:10:41;;;;;;;12.25;9.60;;;;;;;13.76;63.90;95266.38;5098474;28;20030;-86
2023/05/19 06:13:07;;;;;;;12.43;8.73;;;;;;;13.90;63.93;95274.16;5091496;28;20612;-85
2023/05/19 06:15:32;;;;;;;11.90;8.73;;;;;;;14.00;63.86;95270.25;5090493;28;20115;-86
2023/05/19 06:17:58;;;;;;;14.32;12.13;;;;;;;14.04;63.18;95272.88;5091724;28;20103;-86
2023/05/19 06:20:24;;;;;;;13.13;9.75;;;;;;;14.11;63.07;95269.84;5090214;28;20119;-84
2023/05/19 06:22:49;;;;;;;12.95;8.90;;;;;;;14.24;63.40;95272.53;5087583;28;20112;-85
2023/05/19 06:25:15;;;;;;;13.98;8.88;;;;;;;14.28;63.09;95273.19;5071947;28;20386;-86
2023/05/19 06:27:41;;;;;;;14.55;9.50;;;;;;;14.30;62.84;95267.97;5071524;28;20083;-86
2023/05/19 06:30:07;;;;;;;12.82;8.65;;;;;;;14.43;62.79;95278.91;5089424;28;20036;-87
2023/05/19 06:32:32;;;;;;;12.88;10.52;;;;;;;14.55;62.27;95269.78;5090238;28;20516;-87
2023/05/19 06:34:58;;;;;;;12.85;9.63;;;;;;;14.72;61.78;95273.09;5089585;28;20056;-87
2023/05/19 06:37:23;;;;;;;10.93;7.30;;;;;;;14.82;60.33;95274.66;5088754;28;20402;-87
2023/05/19 06:39:53;;;;;;;9.25;7.45;;;;;;;14.85;60.07;95270.97;5090455;28;20016;-86
2023/05/19 06:42:21;;;;;;;13.32;9.20;;;;;;;14.81;60.82;95273.13;5089973;28;20059;-87
2023/05/19 06:44:53;;;;;;;13.57;7.97;;;;;;;14.92;61.23;95276.22;5091511;28;20478;-86
2023/05/19 06:47:20;;;;;;;9.63;7.35;;;;;;;15.04;60.49;95272.56;5091890;28;20075;-86
2023/05/19 06:49:45;;;;;;;13.63;8.07;;;;;;;15.02;60.23;95269.47;5088618;28;20043;-86
2023/05/19 06:52:11;;;;;;;11.50;7.85;;;;;;;15.14;60.47;95271.38;5089909;28;20032;-86
2023/05/19 06:54:36;;;;;;;10.85;8.25;;;;;;;15.10;59.81;95270.75;5088749;28;20138;-87
2023/05/19 06:57:03;;;;;;;11.07;8.18;;;;;;;15.18;60.14;95276.75;5089501;28;20423;-87
2023/05/19 06:59:31;;;;;;;10.52;7.80;;;;;;;15.26;59.45;95280.78;5089188;28;20505;-87
2023/05/19 07:01:57;;;;;;;10.02;7.28;;;;;;;15.37;58.68;95280.34;5089182;28;20046;-87
2023/05/19 07:04:22;;;;;;;13.95;7.53;;;;;;;15.53;58.57;95290.34;5098762;28;20103;-86
2023/05/19 07:06:49;;;;;;;9.45;6.97;;;;;;;15.61;57.73;95286.03;5094977;28;20080;-86
2023/05/19 07:09:14;;;;;;;13.68;6.78;;;;;;;15.76;56.99;95291.75;5091209;28;20397;-86
2023/05/19 07:11:40;;;;;;;10.57;6.68;;;;;;;15.88;57.58;95288.06;5075095;28;20020;-88
2023/05/19 07:14:05;;;;;;;10.75;6.82;;;;;;;15.82;57.61;95287.13;5080298;28;20458;-87
2023/05/19 07:16:31;;;;;;;10.38;6.53;;;;;;;16.03;56.40;95285.44;5092971;28;20102;-87
2023/05/19 07:18:56;;;;;;;7.95;6.32;;;;;;;16.14;56.45;95294.81;5089618;28;20039;-87
2023/05/19 07:21:23;;;;;;;12.38;6.97;;;;;;;16.18;56.54;95287.09;5089220;28;20116;-86
2023/05/19 07:23:48;;;;;;;9.68;6.80;;;;;;;16.33;56.25;95292.75;5089231;28;20031;-82
2023/05/19 07:26:14;;;;;;;10.23;6.47;;;;;;;16.53;56.17;95297.81;5093636;28;20023;-86
2023/05/19 07:28:41;;;;;;;9.73;6.03;;;;;;;16.63;55.66;95293.78;5090036;28;20051;-86
2023/05/19 07:31:07;;;;;;;9.50;6.30;;;;;;;16.67;54.86;95297.13;5089514;28;20020;-87
2023/05/19 07:33:32;;;;;;;11.38;6.65;;;;;;;16.91;54.39;95294.44;5091161;28;20031;-87
2023/05/19 07:35:57;;;;;;;9.88;5.93;;;;;;;17.03;53.26;95294.69;5074094;28;20032;-87
2023/05/19 07:38:23;;;;;;;9.07;6.50;;;;;;;17.03;53.36;95287.13;5073371;28;20031;-87
2023/05/19 07:40:48;;;;;;;6.88;5.97;;;;;;;17.15;52.37;95280.63;5088930;28;20031;-86
2023/05/19 07:43:14;;;;;;;12.38;6.43;;;;;;;17.24;52.05;95288.88;5088116;28;20024;-87
2023/05/19 07:45:39;;;;;;;7.70;5.53;;;;;;;17.49;52.34;95284.09;5088498;28;20028;-87
2023/05/19 07:48:05;;;;;;;9.07;6.00;;;;;;;17.77;52.19;95285.44;5090567;28;20031;-87
2023/05/19 07:50:30;;;;;;;8.70;5.97;;;;;;;17.98;51.79;95285.59;5090314;28;20458;-88
2023/05/19 07:52:56;;;;;;;10.80;5.75;;;;;;;17.93;51.51;95286.25;5092600;28;20024;-88
2023/05/19 07:55:21;;;;;;;8.98;6.18;;;;;;;18.09;51.26;95285.81;5071553;28;20048;-88
2023/05/19 07:57:48;;;;;;;8.88;6.28;;;;;;;18.14;50.97;95278.81;5089832;28;20051;-86
2023/05/19 08:00:14;;;;;;;8.95;6.55;;;;;;;18.16;51.17;95287.44;5100083;28;20028;-86
2023/05/19 08:02:39;;;;;;;7.22;6.38;;;;;;;18.29;51.07;95277.59;5094896;28;20144;-86
2023/05/19 08:05:05;;;;;;;10.35;6.07;;;;;;;18.29;49.83;95277.59;5089027;28;20024;-87
2023/05/19 08:07:32;;;;;;;9.43;6.82;;;;;;;18.35;49.87;95280.47;5087373;28;20390;-86
2023/05/19 08:09:58;;;;;;;9.63;6.50;;;;;;;18.38;49.93;95276.72;5088001;28;20039;-87
2023/05/19 08:12:23;;;;;;;12.65;7.07;;;;;;;18.53;49.50;95283.03;5087879;28;20028;-86
2023/05/19 08:14:49;;;;;;;10.18;6.28;;;;;;;18.74;49.21;95289.47;5087730;28;20058;-87
2023/05/19 08:17:15;;;;;;;10.73;7.32;;;;;;;18.84;49.57;95276.97;5088143;28;20413;-87
2023/05/19 08:19:40;;;;;;;7.97;6.25;;;;;;;18.95;49.15;95289.56;5090174;28;20024;-87
2023/05/19 08:22:06;;;;;;;12.18;6.97;;;;;;;19.09;49.15;95280.38;5089490;28;20119;-86
2023/05/19 08:24:32;;;;;;;8.43;6.40;;;;;;;19.18;48.45;95280.25;5090067;28;20096;-87
2023/05/19 08:26:58;;;;;;;8.60;6.70;;;;;;;19.25;47.81;95276.28;5090093;28;20024;-86
2023/05/19 08:29:24;;;;;;;9.90;6.72;;;;;;;19.36;47.97;95270.88;5089447;28;20039;-87
2023/05/19 08:31:49;;;;;;;8.40;7.28;;;;;;;19.39;47.74;95274.72;5089086;28;20468;-86
2023/05/19 08:34:14;;;;;;;8.32;7.05;;;;;;;19.48;47.53;95272.56;5087842;28;20035;-87
2023/05/19 08:36:40;;;;;;;8.65;6.45;;;;;;;19.70;47.73;95274.88;5088986;28;20031;-89
2023/05/19 08:39:06;;;;;;;8.10;7.22;;;;;;;19.86;46.91;95268.75;5095690;28;20035;-90
2023/05/19 08:41:31;;;;;;;12.10;7.75;;;;;;;20.06;46.76;95270.72;5092296;28;20435;-88
2023/05/19 08:43:58;;;;;;;11.98;6.63;;;;;;;20.07;47.47;95268.69;5088089;28;20028;-90
2023/05/19 08:46:24;;;;;;;10.60;7.45;;;;;;;20.28;46.74;95278.56;5094467;28;20084;-90
2023/05/19 08:48:54;;;;;;;8.05;6.43;;;;;;;20.28;46.71;95266.63;5100400;28;20047;-88
2023/05/19 08:51:38;;;;;;;9.38;7.10;;;;;;;20.53;45.70;95271.47;5093241;28;20032;-88
2023/05/19 08:54:13;;;;;;;9.35;8.00;;;;;;;20.50;45.71;95266.88;5088293;28;20052;-88
2023/05/19 08:56:39;;;;;;;10.65;7.75;;;;;;;20.68;45.29;95265.75;5087957;28;20040;-91
2023/05/19 08:59:06;;;;;;;12.10;7.72;;;;;;;20.58;45.63;95270.75;5084160;28;20054;-92
2023/05/19 09:01:32;;;;;;;10.55;8.13;;;;;;;20.76;45.05;95275.22;5098052;28;20052;-91
2023/05/19 09:03:58;;;;;;;9.25;7.22;;;;;;;20.86;44.95;95270.19;5092367;28;20039;-91
2023/05/19 09:06:24;;;;;;;9.55;7.43;;;;;;;21.12;44.72;95258.97;5088496;28;20035;-88
2023/05/19 09:08:49;;;;;;;16.80;7.65;;;;;;;21.28;44.07;95254.75;5084978;28;20510;-86
2023/05/19 09:11:15;;;;;;;11.77;7.75;;;;;;;21.28;43.20;95263.88;5069525;28;20027;-87
2023/05/19 09:13:40;;;;;;;10.93;7.00;;;;;;;21.31;43.59;95248.94;5084979;28;20041;-87
2023/05/19 09:16:06;;;;;;;14.05;7.82;;;;;;;21.47;43.14;95253.84;5087828;28;20024;-86
2023/05/19 09:18:32;;;;;;;11.90;7.38;;;;;;;21.69;43.15;95250.38;5069026;28;20032;-88
2023/05/19 09:20:59;;;;;;;10.20;7.55;;;;;;;21.67;42.45;95250.09;5086150;28;20028;-87
2023/05/19 09:23:30;;;;;;;12.85;7.40;;;;;;;21.85;42.10;95246.13;5085695;28;20498;-88
2023/05/19 09:25:56;;;;;;;14.32;7.95;;;;;;;21.94;42.22;95242.31;5085132;28;20032;-87
2023/05/19 09:28:32;;;;;;;12.60;7.28;;;;;;;21.92;40.66;95237.22;5086392;28;20160;-86
2023/05/19 09:31:01;;;;;;;8.35;7.45;;;;;;;22.19;41.26;95241.41;5084229;28;20028;-86
2023/05/19 09:33:27;;;;;;;10.45;7.80;;;;;;;22.24;40.80;95239.84;5085963;28;20035;-86
2023/05/19 09:35:55;;;;;;;11.18;8.10;;;;;;;22.42;40.18;95236.59;5068392;28;20534;-87
2023/05/19 09:38:21;;;;;;;12.52;7.90;;;;;;;22.73;40.26;95243.97;5086336;28;20098;-86
2023/05/19 09:40:48;;;;;;;10.68;7.53;;;;;;;22.99;39.78;95243.72;5068252;28;20036;-86
2023/05/19 09:43:14;;;;;;;12.32;8.00;;;;;;;23.10;39.57;95242.94;5084702;28;20028;-87
2023/05/19 09:45:40;;;;;;;11.25;7.10;;;;;;;23.40;39.12;95231.13;5087031;28;20482;-85
2023/05/19 09:48:06;;;;;;;11.55;6.88;;;;;;;23.64;38.99;95227.78;5085532;28;20035;-86
2023/05/19 09:50:32;;;;;;;7.85;7.05;;;;;;;23.70;38.62;95234.13;5070856;28;20509;-85
2023/05/19 09:52:58;;;;;;;11.27;7.90;;;;;;;23.85;38.44;95232.50;5077799;28;20024;-85
2023/05/19 09:55:25;;;;;;;12.05;7.53;;;;;;;24.13;37.61;95219.63;5085404;28;20497;-86
2023/05/19 09:57:54;;;;;;;11.25;7.80;;;;;;;24.42;37.15;95227.38;5085468;28;20063;-86
2023/05/19 10:00:21;;;;;;;12.63;7.68;;;;;;;24.64;36.42;95224.38;5091742;28;20032;-86
2023/05/19 10:02:49;;;;;;;11.63;7.68;;;;;;;24.85;35.14;95224.72;5092353;28;20044;-85
2023/05/19 10:05:21;;;;;;;10.77;7.75;;;;;;;25.03;35.03;95222.53;5086320;28;20041;-87
2023/05/19 10:07:50;;;;;;;11.10;7.72;;;;;;;25.16;35.47;95228.28;5085200;28;20028;-85
2023/05/19 10:10:16;;;;;;;10.23;7.65;;;;;;;25.33;33.97;95216.88;5084170;28;20536;-85
2023/05/19 10:12:42;;;;;;;12.35;8.30;;;;;;;25.39;34.52;95223.19;5085021;28;20506;-86
2023/05/19 10:15:09;;;;;;;10.15;8.02;;;;;;;25.62;34.46;95218.06;5084571;28;20032;-87
2023/05/19 10:17:37;;;;;;;13.32;8.43;;;;;;;25.81;34.45;95210.47;5085412;28;20502;-87
2023/05/19 10:20:04;;;;;;;12.75;7.78;;;;;;;25.90;34.10;95214.94;5069628;28;20063;-85
2023/05/19 10:22:29;;;;;;;10.23;7.95;;;;;;;25.51;33.44;95215.38;5071182;28;20090;-85
2023/05/19 10:24:55;;;;;;;10.05;7.47;;;;;;;25.36;32.60;95215.81;5087091;28;20279;-86
2023/05/19 10:27:21;;;;;;;10.45;7.78;;;;;;;25.29;32.90;95205.13;5086183;28;20611;-86
2023/05/19 10:29:48;;;;;;;11.52;8.70;;;;;;;25.69;32.94;95209.03;5084903;28;20561;-86
2023/05/19 10:32:21;;;;;;;11.32;8.25;;;;;;;25.95;32.17;95208.47;5067783;28;20454;-86
2023/05/19 10:35:25;;;;;;;10.23;7.65;;;;;;;26.08;32.11;95204.97;5084998;28;20016;-85
2023/05/19 10:38:06;;;;;;;10.82;8.32;;;;;;;26.07;31.27;95198.56;5068752;28;20036;-84
2023/05/19 10:40:57;;;;;;;13.13;9.25;;;;;;;25.83;32.33;95207.84;5087143;28;20028;-86
2023/05/19 10:43:43;;;;;;;11.18;7.43;;;;;;;25.27;31.88;95211.31;5042963;28;20032;-86
2023/05/19 10:46:08;;;;;;;10.98;8.02;;;;;;;25.10;33.34;95211.47;5089926;28;20081;-85
2023/05/19 10:48:35;;;;;;;11.70;9.05;;;;;;;25.15;33.89;95213.47;5104900;28;20500;-85
2023/05/19 10:51:01;;;;;;;11.07;8.85;;;;;;;25.05;33.57;95209.47;5090441;28;20024;-86
2023/05/19 10:53:33;;;;;;;13.07;8.45;;;;;;;24.98;33.13;95203.66;5089399;28;20024;-87
2023/05/19 10:56:03;;;;;;;11.50;8.25;;;;;;;25.08;33.19;95208.44;5090176;28;20031;-85
2023/05/19 10:58:43;;;;;;;13.13;9.50;;;;;;;24.97;33.25;95207.75;5088574;28;20028;-85
2023/05/19 11:01:16;;;;;;;13.70;7.65;;;;;;;24.75;33.38;95197.47;5089997;28;20059;-85
2023/05/19 11:03:52;;;;;;;9.73;7.80;;;;;;;24.67;33.02;95197.28;5088992;28;20040;-85
2023/05/19 11:06:17;;;;;;;11.20;7.72;;;;;;;24.74;33.74;95196.72;5087843;28;20101;-85
2023/05/19 11:08:43;;;;;;;10.20;8.00;;;;;;;25.08;32.80;95197.19;5090832;28;20090;-85
2023/05/19 11:11:13;;;;;;;9.02;7.38;;;;;;;25.13;32.64;95190.75;5075824;28;20021;-86
2023/05/19 11:13:43;;;;;;;8.48;7.00;;;;;;;25.07;32.84;95192.84;5089478;28;20036;-87
2023/05/19 11:16:08;;;;;;;14.43;7.95;;;;;;;25.05;33.20;95186.97;5088098;28;20111;-85
2023/05/19 11:18:36;;;;;;;12.43;7.18;;;;;;;25.20;33.49;95189.41;5090101;28;20435;-86
2023/05/19 11:21:02;;;;;;;9.32;7.60;;;;;;;25.32;32.66;95192.84;5089828;28;20040;-86
2023/05/19 11:23:32;;;;;;;9.30;7.65;;;;;;;25.37;31.46;95195.59;5089004;28;20036;-87
2023/05/19 11:26:01;;;;;;;8.95;7.30;;;;;;;25.25;31.38;95180.13;5087653;28;20024;-86
2023/05/19 11:28:28;;;;;;;7.72;6.78;;;;;;;25.20;31.46;95185.81;5087281;28;20038;-86